ADDS METAR Data

Data at: 2335 UTC 26 May 2018

METAR for:KATL (Atlanta/Hartsfield-J, GA, US)
Text:KATL 262252Z 20006KT 10SM FEW045TCU FEW075 SCT110 BKN250 28/19 A2990 RMK AO2 LTG DSNT SE SLP115 CB DSNT N & SE & SW TCU N & S & NW & DSNT E-SE & W T02780189
Temperature: 27.8°C ( 82°F)
Dewpoint: 18.9°C ( 66°F) [RH = 58%]
Pressure (altimeter):29.90 inches Hg (1012.6 mb) [Sea level pressure: 1011.5 mb]
Winds:from the SSW (200 degrees) at 7 MPH (6 knots; 3.1 m/s)
Visibility:10 or more sm (16+ km)
Ceiling:25000 feet AGL
Clouds: few clouds at 4500 feet AGL, few clouds at 7500 feet AGL, scattered clouds at 11000 feet AGL, broken clouds at 25000 feet AGL